Time;durP1;ratioP1;P1;durP2;ratioP2;P2;SDS_P1;SDS_P2;PMS_P1;PMS_P2;Temp;Humidity;BMP_temperature;BMP_pressure;BME280_temperature;BME280_humidity;BME280_pressure;Samples;Min_cycle;Max_cycle;Signal;HPM_P1;HPM_P2
2022/11/22 00:01:00;;;;;;;0.77;0.20;;;2.10;99.90;;;;;;20275718;23;20105;31
2022/11/22 00:11:03;;;;;;;0.75;0.40;;;2.00;99.90;;;;;;20211536;23;20058;-52
2022/11/22 00:21:07;;;;;;;0.63;0.30;;;2.00;99.90;;;;;;20257298;23;20592;-52
2022/11/22 00:31:10;;;;;;;0.65;0.20;;;1.80;99.90;;;;;;20236179;23;20057;-50
2022/11/22 00:41:13;;;;;;;0.95;0.20;;;1.60;99.90;;;;;;20269023;23;20049;-58
2022/11/22 00:51:16;;;;;;;0.00;0.00;;;1.20;99.90;;;;;;20265104;23;20129;-56
2022/11/22 01:01:26;;;;;;;0.17;0.10;;;1.10;99.90;;;;;;20242174;23;20113;31
2022/11/22 01:11:28;;;;;;;0.10;0.10;;;1.20;99.90;;;;;;20218920;23;20058;-58
2022/11/22 01:21:31;;;;;;;1.63;0.52;;;1.40;99.90;;;;;;20256994;23;20589;-54
2022/11/22 01:31:34;;;;;;;2.05;0.52;;;1.70;99.90;;;;;;20255877;23;20534;-54
2022/11/22 01:41:37;;;;;;;0.98;0.20;;;1.90;99.90;;;;;;20157890;23;2140505;-54
2022/11/22 01:51:45;;;;;;;1.30;0.40;;;1.90;99.90;;;;;;20231595;23;20465;-59
2022/11/22 02:01:47;;;;;;;0.70;0.10;;;1.90;99.90;;;;;;20272533;23;20049;-66
2022/11/22 02:11:53;;;;;;;0.52;0.30;;;1.80;99.90;;;;;;20223034;23;20106;-56
2022/11/22 02:22:05;;;;;;;1.27;0.00;;;1.90;99.90;;;;;;20227153;23;20053;-58
2022/11/22 02:32:08;;;;;;;0.05;0.00;;;1.80;99.90;;;;;;20266151;23;20061;-54
2022/11/22 02:42:12;;;;;;;0.00;0.00;;;1.70;99.90;;;;;;20238808;23;20121;-59
2022/11/22 02:52:18;;;;;;;0.30;0.10;;;1.50;99.90;;;;;;20249393;23;20058;-54
2022/11/22 03:02:21;;;;;;;0.40;0.10;;;1.50;99.90;;;;;;20256452;23;20074;-48
2022/11/22 03:12:56;;;;;;;0.30;0.20;;;1.30;99.90;;;;;;20147682;23;20412;-57
2022/11/22 03:23:01;;;;;;;1.25;0.80;;;1.40;99.90;;;;;;20250796;23;20584;31
2022/11/22 03:33:04;;;;;;;2.30;1.08;;;1.30;99.90;;;;;;20228637;23;20069;-58
2022/11/22 03:43:07;;;;;;;1.25;0.70;;;1.20;99.90;;;;;;20278762;23;20061;-57
2022/11/22 03:53:11;;;;;;;1.30;0.73;;;1.10;99.90;;;;;;20272132;23;20121;-58
2022/11/22 04:03:15;;;;;;;1.08;0.70;;;1.10;99.90;;;;;;20295811;23;20106;-55
2022/11/22 04:13:18;;;;;;;0.90;0.60;;;1.10;99.90;;;;;;20197688;23;20571;-59
2022/11/22 04:23:27;;;;;;;1.00;0.60;;;1.10;99.90;;;;;;20238923;23;20053;31
2022/11/22 04:33:30;;;;;;;1.52;0.70;;;1.00;99.90;;;;;;20197948;23;20057;-59
2022/11/22 04:53:54;;;;;;;0.93;0.50;;;1.10;99.90;;;;;;20283831;23;20141;-56
2022/11/22 05:03:56;;;;;;;1.08;0.60;;;1.10;99.90;;;;;;20191411;23;20062;-59
2022/11/22 05:13:59;;;;;;;0.75;0.60;;;1.10;99.90;;;;;;20273225;23;20083;-52
2022/11/22 05:24:02;;;;;;;0.40;0.30;;;1.00;99.90;;;;;;20237541;23;20058;-60
2022/11/22 05:34:13;;;;;;;0.47;0.28;;;0.90;99.90;;;;;;20208466;23;20057;-61
2022/11/22 05:44:16;;;;;;;1.23;0.40;;;0.90;99.90;;;;;;20214347;23;20057;-60
2022/11/22 05:54:19;;;;;;;1.10;0.20;;;0.80;99.90;;;;;;20953189;23;20462;-61
2022/11/22 06:04:22;;;;;;;2.50;0.20;;;0.80;99.90;;;;;;20235576;23;20125;-60
2022/11/22 06:14:24;;;;;;;0.47;0.10;;;0.70;99.90;;;;;;20232370;23;20054;-63
2022/11/22 06:35:32;;;;;;;0.15;0.00;;;0.80;99.90;;;;;;20981243;24;20089;-69
2022/11/22 06:45:36;;;;;;;0.05;0.00;;;0.80;99.90;;;;;;19978595;24;20136;-62
2022/11/22 06:55:38;;;;;;;0.60;0.00;;;0.80;99.90;;;;;;19981316;24;20329;-69
2022/11/22 07:06:14;;;;;;;0.00;0.00;;;0.80;99.90;;;;;;19949172;24;20421;-67
2022/11/22 07:16:19;;;;;;;0.00;0.00;;;0.90;99.90;;;;;;20021372;23;20116;-66
2022/11/22 07:36:53;;;;;;;0.05;0.00;;;0.90;99.90;;;;;;20729082;24;20033;31
2022/11/22 07:46:56;;;;;;;0.65;0.13;;;1.00;99.90;;;;;;19930860;24;20378;-57
2022/11/22 07:56:59;;;;;;;0.77;0.30;;;1.00;99.90;;;;;;19981746;24;20067;-68
2022/11/22 08:07:01;;;;;;;0.00;0.00;;;1.00;99.90;;;;;;19984799;24;20126;-59
2022/11/22 08:17:04;;;;;;;0.05;0.00;;;1.00;99.90;;;;;;20010450;24;20051;-69
2022/11/22 08:27:06;;;;;;;0.00;0.00;;;1.00;99.90;;;;;;20011118;24;20058;-57
2022/11/22 08:37:09;;;;;;;0.10;0.00;;;1.00;99.90;;;;;;20017617;24;20067;-57
2022/11/22 08:47:12;;;;;;;0.00;0.00;;;1.00;99.90;;;;;;20021337;24;20059;-64
2022/11/22 08:57:15;;;;;;;0.00;0.00;;;1.00;99.90;;;;;;19986686;24;20132;-55
2022/11/22 09:07:19;;;;;;;0.00;0.00;;;1.00;99.90;;;;;;19985113;24;20180;-61
2022/11/22 09:17:21;;;;;;;0.17;0.00;;;1.00;99.90;;;;;;19966940;24;20120;-61
2022/11/22 09:27:27;;;;;;;0.15;0.10;;;1.00;99.90;;;;;;19992093;24;20055;31
2022/11/22 09:37:31;;;;;;;0.00;0.00;;;1.10;99.90;;;;;;19983283;24;20104;-65
2022/11/22 09:47:51;;;;;;;0.00;0.00;;;1.10;99.90;;;;;;19998121;24;20059;-58
2022/11/22 09:58:40;;;;;;;0.13;0.00;;;1.10;99.90;;;;;;20011206;24;20062;-61
2022/11/22 10:09:06;;;;;;;0.00;0.00;;;0.90;99.90;;;;;;20001655;24;20482;-59
2022/11/22 10:19:30;;;;;;;1.48;0.00;;;0.80;99.90;;;;;;19929516;24;20129;-61
2022/11/22 10:29:54;;;;;;;0.00;0.00;;;0.80;99.90;;;;;;19930295;24;20054;-59
2022/11/22 10:40:19;;;;;;;0.00;0.00;;;0.80;99.90;;;;;;19887747;24;1661543;-63
2022/11/22 10:50:44;;;;;;;1.05;0.00;;;0.80;99.90;;;;;;19940966;24;20058;-60
2022/11/22 11:01:09;;;;;;;0.00;0.00;;;0.90;99.90;;;;;;19916443;24;20063;-69
2022/11/22 11:11:15;;;;;;;0.10;0.00;;;0.80;99.90;;;;;;19933709;24;20071;-57
2022/11/22 11:21:18;;;;;;;0.00;0.00;;;0.90;99.90;;;;;;20009249;24;20056;-67
2022/11/22 11:31:41;;;;;;;3.10;0.00;;;0.80;99.90;;;;;;20028519;24;20479;-61
2022/11/22 11:41:43;;;;;;;3.83;0.00;;;0.90;99.90;;;;;;19994011;24;20063;-65
2022/11/22 11:51:56;;;;;;;1.55;0.00;;;1.00;99.90;;;;;;20019451;24;20085;-56
2022/11/22 12:02:26;;;;;;;0.00;0.00;;;1.10;99.90;;;;;;20029739;24;20066;-63
2022/11/22 12:12:37;;;;;;;0.10;0.00;;;1.10;99.90;;;;;;19996505;24;20058;-60
2022/11/22 12:23:07;;;;;;;0.17;0.00;;;1.10;99.90;;;;;;20027095;24;21071;-61
2022/11/22 12:33:21;;;;;;;2.05;0.00;;;1.10;99.90;;;;;;19991670;24;20128;-61
2022/11/22 12:43:38;;;;;;;0.00;0.00;;;1.10;99.90;;;;;;20038408;24;20100;-62
2022/11/22 12:53:44;;;;;;;0.03;0.00;;;1.00;99.90;;;;;;19981643;24;20101;-62
2022/11/22 13:04:03;;;;;;;0.00;0.00;;;1.00;99.90;;;;;;19967718;24;20059;-58
2022/11/22 13:14:52;;;;;;;1.45;0.00;;;1.00;99.90;;;;;;19971736;24;20063;-64
2022/11/22 13:25:23;;;;;;;1.45;0.00;;;1.00;99.90;;;;;;19990132;24;20063;-61
2022/11/22 13:35:29;;;;;;;0.00;0.00;;;1.00;99.90;;;;;;19998847;24;20047;-65
2022/11/22 13:46:30;;;;;;;2.13;0.00;;;0.90;99.90;;;;;;19908281;24;20059;-67
2022/11/22 13:56:39;;;;;;;0.00;0.00;;;0.90;99.90;;;;;;19968590;24;20051;-61
2022/11/22 14:07:00;;;;;;;1.13;0.00;;;0.90;99.90;;;;;;19964872;24;20091;-70
2022/11/22 14:17:42;;;;;;;0.00;0.00;;;0.90;99.90;;;;;;20022983;24;20039;-62
2022/11/22 14:28:23;;;;;;;4.68;0.00;;;1.00;99.90;;;;;;20038510;24;20062;-64
2022/11/22 14:38:33;;;;;;;2.22;0.00;;;0.90;99.90;;;;;;20024678;24;20055;-63
2022/11/22 14:49:15;;;;;;;0.10;0.00;;;0.90;99.90;;;;;;20022110;24;20058;-61
2022/11/22 14:59:58;;;;;;;0.75;0.10;;;0.90;99.90;;;;;;20023537;24;20052;-61
2022/11/22 15:10:12;;;;;;;74.53;2.63;;;0.90;99.90;;;;;;20021105;24;20059;-61
2022/11/22 15:20:54;;;;;;;0.20;0.10;;;0.90;99.90;;;;;;20042477;24;20579;-63
2022/11/22 15:31:00;;;;;;;0.38;0.10;;;0.80;99.90;;;;;;20001174;24;20505;-63
2022/11/22 15:41:04;;;;;;;0.60;0.10;;;0.80;99.90;;;;;;20235927;23;20054;-60
2022/11/22 15:51:10;;;;;;;0.52;0.10;;;0.80;99.90;;;;;;20208718;23;20086;-63
2022/11/22 16:01:15;;;;;;;0.05;0.05;;;0.90;99.90;;;;;;20987709;23;20051;-61
2022/11/22 16:12:04;;;;;;;0.20;0.10;;;1.00;99.90;;;;;;20187064;23;20575;-60
2022/11/22 16:22:31;;;;;;;0.10;0.08;;;1.00;99.90;;;;;;20261230;23;20132;-59
2022/11/22 16:32:33;;;;;;;0.00;0.00;;;1.00;99.90;;;;;;20270046;23;20032;-63
2022/11/22 16:42:44;;;;;;;1.15;0.10;;;1.10;99.90;;;;;;20218094;23;20062;-62
2022/11/22 16:52:51;;;;;;;0.30;0.10;;;1.20;99.90;;;;;;20189439;23;20078;-58
2022/11/22 17:03:35;;;;;;;0.00;0.00;;;1.20;99.90;;;;;;20214232;23;20084;-58
2022/11/22 17:13:38;;;;;;;0.20;0.03;;;1.10;99.90;;;;;;20124779;24;20065;-61
2022/11/22 17:23:41;;;;;;;0.28;0.10;;;1.10;99.90;;;;;;20213921;24;20061;-60
2022/11/22 17:34:03;;;;;;;0.20;0.10;;;1.20;99.90;;;;;;20170473;23;20118;-62
2022/11/22 17:44:06;;;;;;;0.43;0.00;;;1.30;99.90;;;;;;20189686;23;20053;-59
2022/11/22 17:54:08;;;;;;;0.80;0.10;;;1.30;99.90;;;;;;20196184;23;20062;-62
2022/11/22 18:04:13;;;;;;;1.40;0.00;;;1.30;99.90;;;;;;20259685;23;20029;-58
2022/11/22 18:14:22;;;;;;;0.00;0.00;;;1.30;99.90;;;;;;20216757;23;20053;31
2022/11/22 18:24:25;;;;;;;0.80;0.00;;;1.50;99.90;;;;;;20031394;24;20453;-64
2022/11/22 18:34:29;;;;;;;0.38;0.00;;;1.40;99.90;;;;;;20181911;24;20058;-59
2022/11/22 18:44:32;;;;;;;0.20;0.03;;;1.40;99.90;;;;;;20168639;23;20053;-65
2022/11/22 18:54:34;;;;;;;0.17;0.03;;;1.30;99.90;;;;;;20271551;23;20416;-55
2022/11/22 19:04:37;;;;;;;0.73;0.00;;;1.30;99.90;;;;;;20259860;23;20066;-64
2022/11/22 19:14:43;;;;;;;0.75;0.00;;;1.30;99.90;;;;;;20237285;23;20061;31
2022/11/22 19:24:47;;;;;;;0.35;0.10;;;1.20;99.90;;;;;;20237842;23;20054;-57
2022/11/22 19:34:50;;;;;;;0.10;0.00;;;1.20;99.90;;;;;;20237965;23;1352651;-64
2022/11/22 19:44:53;;;;;;;0.10;0.00;;;1.10;99.90;;;;;;20261655;23;20105;-55
2022/11/22 20:06:04;;;;;;;0.00;0.00;;;1.10;99.90;;;;;;20230608;23;20122;-53
2022/11/22 20:16:09;;;;;;;0.25;0.00;;;1.10;99.90;;;;;;20177884;23;20432;-62
2022/11/22 20:26:14;;;;;;;0.00;0.00;;;1.00;99.90;;;;;;20179927;23;20118;-55
2022/11/22 20:36:29;;;;;;;0.43;0.00;;;1.00;99.90;;;;;;20210743;23;20058;-65
2022/11/22 20:46:36;;;;;;;1.48;0.00;;;1.00;99.90;;;;;;20172711;23;20190;-56
2022/11/22 20:56:46;;;;;;;0.00;0.00;;;1.00;99.90;;;;;;20159958;23;20058;31
2022/11/22 21:06:48;;;;;;;0.30;0.00;;;1.00;99.90;;;;;;20123538;23;20542;-64
2022/11/22 21:16:51;;;;;;;0.15;0.00;;;1.00;99.90;;;;;;20202412;23;20053;-46
2022/11/22 21:26:55;;;;;;;0.10;0.00;;;1.00;99.90;;;;;;20192942;23;20070;-64
2022/11/22 21:36:57;;;;;;;2.92;0.00;;;0.90;99.90;;;;;;20176717;23;20532;-47
2022/11/22 21:47:00;;;;;;;0.50;0.00;;;0.90;99.90;;;;;;20201695;23;21346;-66
2022/11/22 21:57:10;;;;;;;0.10;0.00;;;0.70;99.90;;;;;;20164332;23;20062;31
2022/11/22 22:07:13;;;;;;;0.00;0.00;;;0.80;99.90;;;;;;20144745;23;20125;-50
2022/11/22 22:17:15;;;;;;;0.03;0.00;;;0.80;99.90;;;;;;20191742;23;20058;-67
2022/11/22 22:27:18;;;;;;;0.00;0.00;;;0.60;99.90;;;;;;20190440;23;20106;-47
2022/11/22 22:37:21;;;;;;;0.30;0.05;;;0.60;99.90;;;;;;20166159;23;20065;-67
2022/11/22 22:47:23;;;;;;;0.30;0.00;;;0.80;99.90;;;;;;20170260;23;20029;-53
2022/11/22 22:57:36;;;;;;;0.03;0.00;;;0.80;99.90;;;;;;20159125;23;20062;-47
2022/11/22 23:07:38;;;;;;;0.63;0.05;;;0.90;99.90;;;;;;20166958;23;20058;-65
2022/11/22 23:17:41;;;;;;;0.93;0.00;;;0.90;99.90;;;;;;20203772;23;20134;-47
2022/11/22 23:27:44;;;;;;;0.10;0.00;;;1.00;99.90;;;;;;20197726;23;20066;-66
2022/11/22 23:37:47;;;;;;;0.10;0.00;;;1.20;99.90;;;;;;20219502;23;20417;-49
2022/11/22 23:47:52;;;;;;;0.05;0.00;;;1.20;99.90;;;;;;20213359;23;20120;-66
2022/11/22 23:58:01;;;;;;;0.32;0.10;;;1.20;99.90;;;;;;20147781;23;20137;31
